sensor_id;sensor_type;location;lat;lon;timestamp;pressure;altitude;pressure_sealevel;temperature;humidity
81913;BME280;71377;50.698;7.164;2023-09-30T00:02:19;101968.94;;;14.40;100.00
81913;BME280;71377;50.698;7.164;2023-09-30T00:04:46;101956.09;;;14.57;99.88
81913;BME280;71377;50.698;7.164;2023-09-30T00:07:12;101960.94;;;14.43;99.50
81913;BME280;71377;50.698;7.164;2023-09-30T00:09:39;101956.75;;;14.36;99.69
81913;BME280;71377;50.698;7.164;2023-09-30T00:12:06;101961.50;;;14.23;99.80
81913;BME280;71377;50.698;7.164;2023-09-30T00:14:33;101969.66;;;14.17;99.65
81913;BME280;71377;50.698;7.164;2023-09-30T00:16:59;101977.56;;;14.17;99.74
81913;BME280;71377;50.698;7.164;2023-09-30T00:19:26;101975.78;;;14.18;99.91
81913;BME280;71377;50.698;7.164;2023-09-30T00:21:52;101977.69;;;14.12;99.70
81913;BME280;71377;50.698;7.164;2023-09-30T00:24:19;101982.31;;;14.04;99.93
81913;BME280;71377;50.698;7.164;2023-09-30T00:26:46;101991.78;;;14.13;100.00
81913;BME280;71377;50.698;7.164;2023-09-30T00:29:12;102002.56;;;14.05;99.97
81913;BME280;71377;50.698;7.164;2023-09-30T00:31:39;102012.84;;;13.83;100.00
81913;BME280;71377;50.698;7.164;2023-09-30T00:34:07;102013.78;;;13.82;100.00
81913;BME280;71377;50.698;7.164;2023-09-30T00:36:34;102010.13;;;13.86;100.00
81913;BME280;71377;50.698;7.164;2023-09-30T00:39:01;101997.91;;;13.82;99.99
81913;BME280;71377;50.698;7.164;2023-09-30T00:41:27;101997.72;;;13.89;100.00
81913;BME280;71377;50.698;7.164;2023-09-30T00:43:54;101992.19;;;13.98;100.00
81913;BME280;71377;50.698;7.164;2023-09-30T00:46:29;101991.47;;;13.93;99.91
81913;BME280;71377;50.698;7.164;2023-09-30T00:48:58;101993.84;;;14.02;100.00
81913;BME280;71377;50.698;7.164;2023-09-30T00:51:28;101986.91;;;13.98;100.00
81913;BME280;71377;50.698;7.164;2023-09-30T00:53:58;101995.03;;;13.92;100.00
81913;BME280;71377;50.698;7.164;2023-09-30T00:56:27;101995.03;;;13.92;99.79
81913;BME280;71377;50.698;7.164;2023-09-30T00:58:57;101993.50;;;13.83;99.87
81913;BME280;71377;50.698;7.164;2023-09-30T01:01:24;101996.88;;;13.88;99.66
81913;BME280;71377;50.698;7.164;2023-09-30T01:03:51;101994.44;;;13.80;99.88
81913;BME280;71377;50.698;7.164;2023-09-30T01:06:20;101993.47;;;13.84;99.98
81913;BME280;71377;50.698;7.164;2023-09-30T01:08:47;101990.66;;;13.91;100.00
81913;BME280;71377;50.698;7.164;2023-09-30T01:11:13;101990.25;;;13.72;99.81
81913;BME280;71377;50.698;7.164;2023-09-30T01:13:40;101999.06;;;13.72;100.00
81913;BME280;71377;50.698;7.164;2023-09-30T01:16:09;102002.81;;;13.64;100.00
81913;BME280;71377;50.698;7.164;2023-09-30T01:18:38;102003.03;;;13.56;100.00
81913;BME280;71377;50.698;7.164;2023-09-30T01:21:06;101995.16;;;13.53;100.00
81913;BME280;71377;50.698;7.164;2023-09-30T01:23:34;101992.53;;;13.53;100.00
81913;BME280;71377;50.698;7.164;2023-09-30T01:26:05;102002.16;;;13.55;100.00
81913;BME280;71377;50.698;7.164;2023-09-30T01:28:32;102005.44;;;13.65;100.00
81913;BME280;71377;50.698;7.164;2023-09-30T01:30:59;102004.63;;;13.62;100.00
81913;BME280;71377;50.698;7.164;2023-09-30T01:33:29;102003.75;;;13.61;100.00
81913;BME280;71377;50.698;7.164;2023-09-30T01:35:55;102006.50;;;13.58;100.00
81913;BME280;71377;50.698;7.164;2023-09-30T01:38:22;102017.63;;;13.69;100.00
81913;BME280;71377;50.698;7.164;2023-09-30T01:40:48;102010.47;;;13.74;100.00
81913;BME280;71377;50.698;7.164;2023-09-30T01:43:15;102007.72;;;13.77;100.00
81913;BME280;71377;50.698;7.164;2023-09-30T01:45:42;102013.69;;;13.85;100.00
81913;BME280;71377;50.698;7.164;2023-09-30T01:48:10;102005.81;;;13.84;100.00
81913;BME280;71377;50.698;7.164;2023-09-30T01:50:38;102015.66;;;13.77;100.00
81913;BME280;71377;50.698;7.164;2023-09-30T01:53:05;102022.00;;;13.70;100.00
81913;BME280;71377;50.698;7.164;2023-09-30T01:55:36;102023.94;;;13.64;100.00
81913;BME280;71377;50.698;7.164;2023-09-30T01:58:02;102016.84;;;13.66;100.00
81913;BME280;71377;50.698;7.164;2023-09-30T02:00:29;102019.53;;;13.64;100.00
81913;BME280;71377;50.698;7.164;2023-09-30T02:02:56;102013.38;;;13.64;100.00
81913;BME280;71377;50.698;7.164;2023-09-30T02:05:23;102010.88;;;13.59;100.00
81913;BME280;71377;50.698;7.164;2023-09-30T02:07:50;102017.78;;;13.63;100.00
81913;BME280;71377;50.698;7.164;2023-09-30T02:10:17;102024.81;;;13.64;100.00
81913;BME280;71377;50.698;7.164;2023-09-30T02:12:47;102028.47;;;13.58;100.00
81913;BME280;71377;50.698;7.164;2023-09-30T02:15:14;102022.44;;;13.53;100.00
81913;BME280;71377;50.698;7.164;2023-09-30T02:17:41;102019.59;;;13.61;100.00
81913;BME280;71377;50.698;7.164;2023-09-30T02:20:12;102031.75;;;13.68;100.00
81913;BME280;71377;50.698;7.164;2023-09-30T02:22:42;102035.44;;;13.61;100.00
81913;BME280;71377;50.698;7.164;2023-09-30T02:25:10;102020.41;;;13.63;100.00
81913;BME280;71377;50.698;7.164;2023-09-30T02:27:41;102017.78;;;13.63;100.00
81913;BME280;71377;50.698;7.164;2023-09-30T02:30:09;102013.94;;;13.76;100.00
81913;BME280;71377;50.698;7.164;2023-09-30T02:32:40;102008.66;;;13.76;100.00
81913;BME280;71377;50.698;7.164;2023-09-30T02:35:08;102009.47;;;13.78;100.00
81913;BME280;71377;50.698;7.164;2023-09-30T02:37:34;102013.06;;;13.76;100.00
81913;BME280;71377;50.698;7.164;2023-09-30T02:40:05;102019.00;;;13.84;100.00
81913;BME280;71377;50.698;7.164;2023-09-30T02:42:39;102021.59;;;13.85;100.00
81913;BME280;71377;50.698;7.164;2023-09-30T02:45:07;102023.25;;;13.90;100.00
81913;BME280;71377;50.698;7.164;2023-09-30T02:47:36;102018.97;;;13.85;100.00
81913;BME280;71377;50.698;7.164;2023-09-30T02:50:05;102023.44;;;13.83;100.00
81913;BME280;71377;50.698;7.164;2023-09-30T02:52:32;102029.69;;;13.79;100.00
81913;BME280;71377;50.698;7.164;2023-09-30T02:54:59;102024.28;;;13.84;100.00
81913;BME280;71377;50.698;7.164;2023-09-30T02:57:25;102025.00;;;13.89;100.00
81913;BME280;71377;50.698;7.164;2023-09-30T02:59:54;102012.66;;;13.90;100.00
81913;BME280;71377;50.698;7.164;2023-09-30T03:02:20;102015.41;;;13.86;100.00
81913;BME280;71377;50.698;7.164;2023-09-30T03:04:50;102011.00;;;13.87;100.00
81913;BME280;71377;50.698;7.164;2023-09-30T03:07:20;102023.34;;;13.86;100.00
81913;BME280;71377;50.698;7.164;2023-09-30T03:09:47;102028.03;;;13.75;100.00
81913;BME280;71377;50.698;7.164;2023-09-30T03:12:14;102031.59;;;13.74;100.00
81913;BME280;71377;50.698;7.164;2023-09-30T03:14:40;102037.03;;;13.68;100.00
81913;BME280;71377;50.698;7.164;2023-09-30T03:17:06;102035.06;;;13.76;100.00
81913;BME280;71377;50.698;7.164;2023-09-30T03:19:38;102029.00;;;13.73;100.00
81913;BME280;71377;50.698;7.164;2023-09-30T03:22:05;102021.22;;;13.67;100.00
81913;BME280;71377;50.698;7.164;2023-09-30T03:24:32;102014.22;;;13.66;100.00
81913;BME280;71377;50.698;7.164;2023-09-30T03:26:58;102007.31;;;13.60;100.00
81913;BME280;71377;50.698;7.164;2023-09-30T03:29:24;102014.09;;;13.70;100.00
81913;BME280;71377;50.698;7.164;2023-09-30T03:31:52;102026.56;;;13.65;100.00
81913;BME280;71377;50.698;7.164;2023-09-30T03:34:19;102031.84;;;13.65;100.00
81913;BME280;71377;50.698;7.164;2023-09-30T03:36:46;102028.44;;;13.60;100.00
81913;BME280;71377;50.698;7.164;2023-09-30T03:39:12;102016.25;;;13.54;100.00
81913;BME280;71377;50.698;7.164;2023-09-30T03:41:41;102017.16;;;13.53;100.00
81913;BME280;71377;50.698;7.164;2023-09-30T03:44:08;102030.53;;;13.47;100.00
81913;BME280;71377;50.698;7.164;2023-09-30T03:46:34;102034.09;;;13.45;100.00
81913;BME280;71377;50.698;7.164;2023-09-30T03:49:01;102042.94;;;13.44;100.00
81913;BME280;71377;50.698;7.164;2023-09-30T03:51:28;102040.56;;;13.33;100.00
81913;BME280;71377;50.698;7.164;2023-09-30T03:53:55;102043.25;;;13.32;100.00
81913;BME280;71377;50.698;7.164;2023-09-30T03:56:22;102044.16;;;13.31;100.00
81913;BME280;71377;50.698;7.164;2023-09-30T03:58:49;102035.38;;;13.30;100.00
81913;BME280;71377;50.698;7.164;2023-09-30T04:01:15;102020.22;;;13.38;100.00
81913;BME280;71377;50.698;7.164;2023-09-30T04:03:43;102023.84;;;13.33;100.00
81913;BME280;71377;50.698;7.164;2023-09-30T04:06:10;102020.22;;;13.37;100.00
81913;BME280;71377;50.698;7.164;2023-09-30T04:08:37;102025.69;;;13.31;100.00
81913;BME280;71377;50.698;7.164;2023-09-30T04:11:03;102029.22;;;13.28;100.00
81913;BME280;71377;50.698;7.164;2023-09-30T04:13:30;102031.00;;;13.27;100.00
81913;BME280;71377;50.698;7.164;2023-09-30T04:15:57;102025.00;;;13.22;100.00
81913;BME280;71377;50.698;7.164;2023-09-30T04:18:26;102031.19;;;13.20;100.00
81913;BME280;71377;50.698;7.164;2023-09-30T04:20:53;102027.69;;;13.19;100.00
81913;BME280;71377;50.698;7.164;2023-09-30T04:23:19;102025.97;;;13.17;100.00
81913;BME280;71377;50.698;7.164;2023-09-30T04:25:49;102020.53;;;13.24;100.00
81913;BME280;71377;50.698;7.164;2023-09-30T04:28:16;102004.91;;;13.15;100.00
81913;BME280;71377;50.698;7.164;2023-09-30T04:30:47;102017.06;;;13.22;100.00
81913;BME280;71377;50.698;7.164;2023-09-30T04:33:16;102022.41;;;13.18;100.00
81913;BME280;71377;50.698;7.164;2023-09-30T04:35:44;102027.88;;;13.10;100.00
81913;BME280;71377;50.698;7.164;2023-09-30T04:38:11;102034.88;;;13.11;100.00
81913;BME280;71377;50.698;7.164;2023-09-30T04:40:37;102024.31;;;13.11;100.00
81913;BME280;71377;50.698;7.164;2023-09-30T04:43:04;102013.63;;;13.17;100.00
81913;BME280;71377;50.698;7.164;2023-09-30T04:45:31;102015.38;;;13.18;100.00
81913;BME280;71377;50.698;7.164;2023-09-30T04:47:59;102009.88;;;13.27;100.00
81913;BME280;71377;50.698;7.164;2023-09-30T04:50:28;102017.66;;;13.34;100.00
81913;BME280;71377;50.698;7.164;2023-09-30T04:52:56;102028.25;;;13.32;100.00
81913;BME280;71377;50.698;7.164;2023-09-30T04:55:24;102022.19;;;13.28;100.00
81913;BME280;71377;50.698;7.164;2023-09-30T04:57:50;102024.03;;;13.25;100.00
81913;BME280;71377;50.698;7.164;2023-09-30T05:00:19;102033.66;;;13.27;100.00
81913;BME280;71377;50.698;7.164;2023-09-30T05:02:48;102046.63;;;13.37;100.00
81913;BME280;71377;50.698;7.164;2023-09-30T05:05:14;102049.28;;;13.35;100.00
81913;BME280;71377;50.698;7.164;2023-09-30T05:07:42;102058.13;;;13.34;100.00
81913;BME280;71377;50.698;7.164;2023-09-30T05:10:08;102069.53;;;13.35;100.00
81913;BME280;71377;50.698;7.164;2023-09-30T05:12:40;102079.25;;;13.34;100.00
81913;BME280;71377;50.698;7.164;2023-09-30T05:15:13;102084.59;;;13.31;100.00
81913;BME280;71377;50.698;7.164;2023-09-30T05:17:42;102086.38;;;13.31;100.00
81913;BME280;71377;50.698;7.164;2023-09-30T05:20:14;102085.50;;;13.28;100.00
81913;BME280;71377;50.698;7.164;2023-09-30T05:22:43;102073.31;;;13.24;100.00
81913;BME280;71377;50.698;7.164;2023-09-30T05:25:15;102061.72;;;13.32;100.00
81913;BME280;71377;50.698;7.164;2023-09-30T05:27:44;102054.75;;;13.27;100.00
81913;BME280;71377;50.698;7.164;2023-09-30T05:30:11;102053.63;;;13.38;100.00
81913;BME280;71377;50.698;7.164;2023-09-30T05:32:38;102051.97;;;13.34;100.00
81913;BME280;71377;50.698;7.164;2023-09-30T05:35:06;102057.25;;;13.34;100.00
81913;BME280;71377;50.698;7.164;2023-09-30T05:37:42;102076.19;;;13.51;100.00
81913;BME280;71377;50.698;7.164;2023-09-30T05:40:09;102077.38;;;13.39;100.00
81913;BME280;71377;50.698;7.164;2023-09-30T05:42:48;102079.88;;;13.44;100.00
81913;BME280;71377;50.698;7.164;2023-09-30T05:45:16;102073.00;;;13.37;100.00
81913;BME280;71377;50.698;7.164;2023-09-30T05:47:42;102081.16;;;13.27;100.00
81913;BME280;71377;50.698;7.164;2023-09-30T05:50:11;102078.50;;;13.27;100.00
81913;BME280;71377;50.698;7.164;2023-09-30T05:52:43;102088.16;;;13.28;100.00
81913;BME280;71377;50.698;7.164;2023-09-30T05:55:13;102096.19;;;13.24;100.00
81913;BME280;71377;50.698;7.164;2023-09-30T05:57:41;102095.38;;;13.19;100.00
81913;BME280;71377;50.698;7.164;2023-09-30T06:00:11;102095.81;;;13.41;100.00
81913;BME280;71377;50.698;7.164;2023-09-30T06:02:41;102086.38;;;13.31;100.00
81913;BME280;71377;50.698;7.164;2023-09-30T06:05:08;102084.66;;;13.29;100.00
81913;BME280;71377;50.698;7.164;2023-09-30T06:07:35;102089.84;;;13.33;100.00
81913;BME280;71377;50.698;7.164;2023-09-30T06:10:01;102073.09;;;13.34;100.00
81913;BME280;71377;50.698;7.164;2023-09-30T06:12:29;102083.88;;;13.24;100.00
81913;BME280;71377;50.698;7.164;2023-09-30T06:14:55;102086.59;;;13.20;100.00
81913;BME280;71377;50.698;7.164;2023-09-30T06:17:22;102101.47;;;13.24;100.00
81913;BME280;71377;50.698;7.164;2023-09-30T06:19:48;102105.81;;;13.26;100.00
81913;BME280;71377;50.698;7.164;2023-09-30T06:22:16;102104.72;;;13.35;100.00
81913;BME280;71377;50.698;7.164;2023-09-30T06:24:43;102098.66;;;13.32;100.00
81913;BME280;71377;50.698;7.164;2023-09-30T06:27:09;102087.03;;;13.40;100.00
81913;BME280;71377;50.698;7.164;2023-09-30T06:29:39;102097.31;;;13.51;100.00
81913;BME280;71377;50.698;7.164;2023-09-30T06:32:07;102101.00;;;13.44;100.00
81913;BME280;71377;50.698;7.164;2023-09-30T06:34:33;102116.00;;;13.42;100.00
81913;BME280;71377;50.698;7.164;2023-09-30T06:37:00;102106.22;;;13.47;100.00
81913;BME280;71377;50.698;7.164;2023-09-30T06:39:27;102101.59;;;13.56;100.00
81913;BME280;71377;50.698;7.164;2023-09-30T06:41:55;102104.25;;;13.55;100.00
81913;BME280;71377;50.698;7.164;2023-09-30T06:44:22;102098.69;;;13.67;100.00
81913;BME280;71377;50.698;7.164;2023-09-30T06:46:51;102107.47;;;13.68;100.00
81913;BME280;71377;50.698;7.164;2023-09-30T06:49:18;102094.97;;;13.74;100.00
81913;BME280;71377;50.698;7.164;2023-09-30T06:51:44;102094.81;;;13.80;100.00
81913;BME280;71377;50.698;7.164;2023-09-30T06:54:10;102104.50;;;13.80;100.00
81913;BME280;71377;50.698;7.164;2023-09-30T06:56:37;102110.16;;;13.66;100.00
81913;BME280;71377;50.698;7.164;2023-09-30T06:59:03;102116.75;;;13.84;100.00
81913;BME280;71377;50.698;7.164;2023-09-30T07:01:30;102124.78;;;13.79;100.00
81913;BME280;71377;50.698;7.164;2023-09-30T07:03:56;102121.88;;;13.89;100.00
81913;BME280;71377;50.698;7.164;2023-09-30T07:06:24;102120.34;;;13.80;100.00
81913;BME280;71377;50.698;7.164;2023-09-30T07:08:51;102122.03;;;13.84;100.00
81913;BME280;71377;50.698;7.164;2023-09-30T07:11:26;102125.41;;;13.89;100.00
81913;BME280;71377;50.698;7.164;2023-09-30T07:13:53;102130.53;;;13.95;100.00
81913;BME280;71377;50.698;7.164;2023-09-30T07:16:19;102126.13;;;13.96;100.00
81913;BME280;71377;50.698;7.164;2023-09-30T07:18:46;102130.00;;;13.81;100.00
81913;BME280;71377;50.698;7.164;2023-09-30T07:21:13;102125.88;;;13.71;100.00
81913;BME280;71377;50.698;7.164;2023-09-30T07:23:39;102123.19;;;13.72;100.00
81913;BME280;71377;50.698;7.164;2023-09-30T07:26:07;102120.97;;;13.91;100.00
81913;BME280;71377;50.698;7.164;2023-09-30T07:28:33;102128.56;;;14.03;99.88
81913;BME280;71377;50.698;7.164;2023-09-30T07:31:00;102128.69;;;13.99;100.00
81913;BME280;71377;50.698;7.164;2023-09-30T07:33:27;102140.97;;;14.01;99.63
81913;BME280;71377;50.698;7.164;2023-09-30T07:35:53;102135.19;;;13.85;99.91
81913;BME280;71377;50.698;7.164;2023-09-30T07:38:22;102137.78;;;13.87;99.31
81913;BME280;71377;50.698;7.164;2023-09-30T07:40:49;102148.94;;;14.00;99.57
81913;BME280;71377;50.698;7.164;2023-09-30T07:43:15;102155.84;;;14.04;99.03
81913;BME280;71377;50.698;7.164;2023-09-30T07:45:43;102149.03;;;13.95;99.15
81913;BME280;71377;50.698;7.164;2023-09-30T07:48:10;102158.34;;;14.10;99.31
81913;BME280;71377;50.698;7.164;2023-09-30T07:50:36;102164.38;;;14.15;98.87
81913;BME280;71377;50.698;7.164;2023-09-30T07:53:04;102153.50;;;14.27;98.92
81913;BME280;71377;50.698;7.164;2023-09-30T07:55:30;102179.78;;;14.33;98.87
81913;BME280;71377;50.698;7.164;2023-09-30T07:57:57;102177.50;;;14.54;98.85
81913;BME280;71377;50.698;7.164;2023-09-30T08:00:26;102172.91;;;14.59;98.59
81913;BME280;71377;50.698;7.164;2023-09-30T08:02:53;102161.75;;;14.80;97.81
81913;BME280;71377;50.698;7.164;2023-09-30T08:05:19;102160.66;;;14.87;97.35
81913;BME280;71377;50.698;7.164;2023-09-30T08:07:46;102159.66;;;14.91;98.07
81913;BME280;71377;50.698;7.164;2023-09-30T08:10:12;102156.97;;;14.93;97.48
81913;BME280;71377;50.698;7.164;2023-09-30T08:12:40;102159.97;;;15.10;96.18
81913;BME280;71377;50.698;7.164;2023-09-30T08:15:08;102155.47;;;15.14;97.19
81913;BME280;71377;50.698;7.164;2023-09-30T08:17:38;102144.78;;;15.17;96.83
81913;BME280;71377;50.698;7.164;2023-09-30T08:20:05;102154.34;;;15.22;96.58
81913;BME280;71377;50.698;7.164;2023-09-30T08:22:31;102165.25;;;15.12;96.56
81913;BME280;71377;50.698;7.164;2023-09-30T08:24:58;102172.63;;;15.30;96.03
81913;BME280;71377;50.698;7.164;2023-09-30T08:27:25;102177.25;;;15.51;93.64
81913;BME280;71377;50.698;7.164;2023-09-30T08:29:51;102181.44;;;15.59;93.07
81913;BME280;71377;50.698;7.164;2023-09-30T08:32:18;102184.28;;;15.52;93.62
81913;BME280;71377;50.698;7.164;2023-09-30T08:34:44;102180.50;;;15.61;94.66
81913;BME280;71377;50.698;7.164;2023-09-30T08:37:10;102190.50;;;15.79;92.50
81913;BME280;71377;50.698;7.164;2023-09-30T08:39:38;102188.66;;;15.83;92.23
81913;BME280;71377;50.698;7.164;2023-09-30T08:42:09;102201.91;;;15.83;92.22
81913;BME280;71377;50.698;7.164;2023-09-30T08:44:40;102190.78;;;15.98;91.40
81913;BME280;71377;50.698;7.164;2023-09-30T08:47:07;102192.53;;;15.99;91.29
81913;BME280;71377;50.698;7.164;2023-09-30T08:49:40;102200.56;;;15.96;90.55
81913;BME280;71377;50.698;7.164;2023-09-30T08:52:09;102191.00;;;15.92;91.06
81913;BME280;71377;50.698;7.164;2023-09-30T08:54:36;102191.19;;;15.86;91.31
81913;BME280;71377;50.698;7.164;2023-09-30T08:57:04;102190.88;;;15.95;91.18
81913;BME280;71377;50.698;7.164;2023-09-30T08:59:31;102182.44;;;16.10;88.97
81913;BME280;71377;50.698;7.164;2023-09-30T09:02:01;102187.72;;;16.10;90.28
81913;BME280;71377;50.698;7.164;2023-09-30T09:04:28;102184.81;;;16.18;89.08
81913;BME280;71377;50.698;7.164;2023-09-30T09:06:54;102185.19;;;16.32;89.12
81913;BME280;71377;50.698;7.164;2023-09-30T09:09:23;102184.34;;;16.57;88.11
81913;BME280;71377;50.698;7.164;2023-09-30T09:11:50;102174.06;;;16.73;86.92
81913;BME280;71377;50.698;7.164;2023-09-30T09:14:17;102165.50;;;16.64;86.69
81913;BME280;71377;50.698;7.164;2023-09-30T09:16:55;102160.38;;;16.60;86.71
81913;BME280;71377;50.698;7.164;2023-09-30T09:19:22;102153.88;;;16.92;86.29
81913;BME280;71377;50.698;7.164;2023-09-30T09:22:00;102153.53;;;17.01;85.11
81913;BME280;71377;50.698;7.164;2023-09-30T09:24:28;102153.78;;;16.95;84.50
81913;BME280;71377;50.698;7.164;2023-09-30T09:29:34;102148.53;;;17.39;83.53
81913;BME280;71377;50.698;7.164;2023-09-30T09:32:14;102147.16;;;17.50;81.96
81913;BME280;71377;50.698;7.164;2023-09-30T09:34:43;102145.53;;;17.70;80.73
81913;BME280;71377;50.698;7.164;2023-09-30T09:37:17;102144.56;;;17.93;79.23
81913;BME280;71377;50.698;7.164;2023-09-30T09:39:55;102137.06;;;18.23;77.81
81913;BME280;71377;50.698;7.164;2023-09-30T09:42:32;102147.25;;;17.93;79.97
81913;BME280;71377;50.698;7.164;2023-09-30T09:45:04;102135.88;;;18.10;79.01
81913;BME280;71377;50.698;7.164;2023-09-30T09:47:33;102134.69;;;18.37;78.18
81913;BME280;71377;50.698;7.164;2023-09-30T09:50:02;102129.25;;;18.59;76.53
81913;BME280;71377;50.698;7.164;2023-09-30T09:52:29;102120.41;;;18.79;76.53
81913;BME280;71377;50.698;7.164;2023-09-30T09:54:58;102125.72;;;18.79;76.24
81913;BME280;71377;50.698;7.164;2023-09-30T09:57:25;102121.34;;;18.97;74.23
81913;BME280;71377;50.698;7.164;2023-09-30T09:59:53;102133.13;;;19.10;73.43
81913;BME280;71377;50.698;7.164;2023-09-30T10:02:25;102137.34;;;19.52;71.62
81913;BME280;71377;50.698;7.164;2023-09-30T10:04:54;102129.25;;;19.17;71.86
81913;BME280;71377;50.698;7.164;2023-09-30T10:07:26;102136.94;;;19.42;70.69
81913;BME280;71377;50.698;7.164;2023-09-30T10:09:56;102137.69;;;19.63;70.35
81913;BME280;71377;50.698;7.164;2023-09-30T10:12:25;102118.50;;;19.56;70.15
81913;BME280;71377;50.698;7.164;2023-09-30T10:14:52;102118.75;;;19.86;68.28
81913;BME280;71377;50.698;7.164;2023-09-30T10:17:19;102122.47;;;20.01;67.87
81913;BME280;71377;50.698;7.164;2023-09-30T10:20:05;102124.09;;;20.03;66.58
81913;BME280;71377;50.698;7.164;2023-09-30T10:22:35;102135.63;;;20.21;66.89
81913;BME280;71377;50.698;7.164;2023-09-30T10:25:32;102128.16;;;20.45;63.88
81913;BME280;71377;50.698;7.164;2023-09-30T10:27:59;102129.97;;;20.45;63.74
81913;BME280;71377;50.698;7.164;2023-09-30T10:30:26;102136.34;;;20.25;63.96
81913;BME280;71377;50.698;7.164;2023-09-30T10:35:42;102135.78;;;20.01;62.39
81913;BME280;71377;50.698;7.164;2023-09-30T10:40:51;102152.38;;;20.41;61.22
81913;BME280;71377;50.698;7.164;2023-09-30T10:43:31;102147.31;;;20.53;60.34
81913;BME280;71377;50.698;7.164;2023-09-30T10:45:59;102135.09;;;20.65;59.79
81913;BME280;71377;50.698;7.164;2023-09-30T10:50:56;102123.97;;;21.22;56.12
81913;BME280;71377;50.698;7.164;2023-09-30T10:53:23;102121.81;;;21.44;55.87
81913;BME280;71377;50.698;7.164;2023-09-30T10:55:57;102127.78;;;21.79;55.48
81913;BME280;71377;50.698;7.164;2023-09-30T10:58:43;102129.66;;;21.93;52.08
81913;BME280;71377;50.698;7.164;2023-09-30T11:01:12;102129.47;;;20.87;56.53
81913;BME280;71377;50.698;7.164;2023-09-30T11:03:41;102134.13;;;20.99;56.28
81913;BME280;71377;50.698;7.164;2023-09-30T11:06:14;102146.13;;;19.54;59.97
81913;BME280;71377;50.698;7.164;2023-09-30T11:08:55;102139.22;;;19.86;59.57
81913;BME280;71377;50.698;7.164;2023-09-30T11:11:39;102141.44;;;20.47;58.43
81913;BME280;71377;50.698;7.164;2023-09-30T11:14:30;102143.19;;;20.64;57.96
81913;BME280;71377;50.698;7.164;2023-09-30T11:17:00;102150.94;;;20.52;57.82
81913;BME280;71377;50.698;7.164;2023-09-30T11:19:46;102144.34;;;20.75;57.15
81913;BME280;71377;50.698;7.164;2023-09-30T11:22:12;102133.09;;;20.86;54.67
81913;BME280;71377;50.698;7.164;2023-09-30T11:24:39;102134.00;;;21.34;53.50
81913;BME280;71377;50.698;7.164;2023-09-30T11:27:06;102128.16;;;21.73;51.76
81913;BME280;71377;50.698;7.164;2023-09-30T11:29:33;102123.78;;;21.25;50.83
81913;BME280;71377;50.698;7.164;2023-09-30T11:31:59;102115.34;;;20.85;49.76
81913;BME280;71377;50.698;7.164;2023-09-30T11:34:35;102112.06;;;20.80;51.99
81913;BME280;71377;50.698;7.164;2023-09-30T11:37:05;102116.47;;;21.12;50.73
81913;BME280;71377;50.698;7.164;2023-09-30T11:39:36;102102.66;;;20.88;50.54
81913;BME280;71377;50.698;7.164;2023-09-30T11:42:14;102103.81;;;21.48;47.54
81913;BME280;71377;50.698;7.164;2023-09-30T11:44:45;102099.06;;;21.97;45.88
81913;BME280;71377;50.698;7.164;2023-09-30T11:47:16;102096.22;;;22.16;47.03
81913;BME280;71377;50.698;7.164;2023-09-30T11:49:43;102095.47;;;21.98;45.74
81913;BME280;71377;50.698;7.164;2023-09-30T11:52:15;102087.22;;;23.29;42.44
81913;BME280;71377;50.698;7.164;2023-09-30T11:54:43;102085.63;;;22.86;43.94
81913;BME280;71377;50.698;7.164;2023-09-30T11:57:12;102077.16;;;22.49;43.75
81913;BME280;71377;50.698;7.164;2023-09-30T11:59:47;102087.41;;;22.28;44.05
81913;BME280;71377;50.698;7.164;2023-09-30T12:02:17;102092.97;;;22.25;45.17
81913;BME280;71377;50.698;7.164;2023-09-30T12:04:45;102095.06;;;21.60;46.86
81913;BME280;71377;50.698;7.164;2023-09-30T12:07:13;102101.69;;;21.68;46.37
81913;BME280;71377;50.698;7.164;2023-09-30T12:09:40;102096.81;;;20.98;47.88
81913;BME280;71377;50.698;7.164;2023-09-30T12:12:08;102090.63;;;21.13;47.13
81913;BME280;71377;50.698;7.164;2023-09-30T12:14:40;102094.84;;;21.33;45.86
81913;BME280;71377;50.698;7.164;2023-09-30T12:17:06;102093.00;;;21.65;44.52
81913;BME280;71377;50.698;7.164;2023-09-30T12:19:38;102087.13;;;22.47;45.14
81913;BME280;71377;50.698;7.164;2023-09-30T12:22:04;102092.25;;;21.47;45.68
81913;BME280;71377;50.698;7.164;2023-09-30T12:24:31;102086.16;;;21.29;47.28
81913;BME280;71377;50.698;7.164;2023-09-30T12:26:57;102074.56;;;21.75;46.02
81913;BME280;71377;50.698;7.164;2023-09-30T12:29:24;102069.16;;;21.60;45.45
81913;BME280;71377;50.698;7.164;2023-09-30T12:31:53;102048.03;;;22.16;44.42
81913;BME280;71377;50.698;7.164;2023-09-30T12:34:21;102041.78;;;23.40;42.01
81913;BME280;71377;50.698;7.164;2023-09-30T12:36:53;102030.72;;;23.97;39.22
81913;BME280;71377;50.698;7.164;2023-09-30T12:39:22;102028.88;;;24.23;38.62
81913;BME280;71377;50.698;7.164;2023-09-30T12:41:52;102032.22;;;24.40;39.11
81913;BME280;71377;50.698;7.164;2023-09-30T12:44:19;102024.72;;;24.32;38.93
81913;BME280;71377;50.698;7.164;2023-09-30T12:46:45;102037.81;;;23.46;41.76
81913;BME280;71377;50.698;7.164;2023-09-30T12:49:12;102042.38;;;23.31;41.56
81913;BME280;71377;50.698;7.164;2023-09-30T12:51:38;102040.81;;;23.81;41.25
81913;BME280;71377;50.698;7.164;2023-09-30T12:54:05;102029.63;;;24.13;40.09
81913;BME280;71377;50.698;7.164;2023-09-30T12:56:31;102031.78;;;23.03;41.42
81913;BME280;71377;50.698;7.164;2023-09-30T12:58:58;102023.13;;;23.52;41.00
81913;BME280;71377;50.698;7.164;2023-09-30T13:01:25;102024.28;;;24.00;40.79
81913;BME280;71377;50.698;7.164;2023-09-30T13:03:52;102028.50;;;23.12;41.85